sensor_id;sensor_type;location;lat;lon;timestamp;P1;durP1;ratioP1;P2;durP2;ratioP2
45408;SDS011;31162;51.076;3.784;2023-06-14T00:00:19;8.18;;;5.47;;
45408;SDS011;31162;51.076;3.784;2023-06-14T00:02:45;7.45;;;5.43;;
45408;SDS011;31162;51.076;3.784;2023-06-14T00:05:11;8.05;;;5.80;;
45408;SDS011;31162;51.076;3.784;2023-06-14T00:07:40;8.90;;;5.60;;
45408;SDS011;31162;51.076;3.784;2023-06-14T00:10:13;6.07;;;5.38;;
45408;SDS011;31162;51.076;3.784;2023-06-14T00:12:39;6.88;;;5.65;;
45408;SDS011;31162;51.076;3.784;2023-06-14T00:15:07;7.95;;;5.25;;
45408;SDS011;31162;51.076;3.784;2023-06-14T00:17:34;8.38;;;5.95;;
45408;SDS011;31162;51.076;3.784;2023-06-14T00:20:01;6.63;;;5.60;;
45408;SDS011;31162;51.076;3.784;2023-06-14T00:22:30;6.80;;;6.13;;
45408;SDS011;31162;51.076;3.784;2023-06-14T00:24:56;10.18;;;5.47;;
45408;SDS011;31162;51.076;3.784;2023-06-14T00:27:22;5.75;;;5.13;;
45408;SDS011;31162;51.076;3.784;2023-06-14T00:29:48;9.25;;;5.88;;
45408;SDS011;31162;51.076;3.784;2023-06-14T00:32:13;6.82;;;6.15;;
45408;SDS011;31162;51.076;3.784;2023-06-14T00:34:39;6.50;;;5.97;;
45408;SDS011;31162;51.076;3.784;2023-06-14T00:37:05;9.10;;;6.40;;
45408;SDS011;31162;51.076;3.784;2023-06-14T00:39:31;7.80;;;6.05;;
45408;SDS011;31162;51.076;3.784;2023-06-14T00:41:56;6.07;;;5.45;;
45408;SDS011;31162;51.076;3.784;2023-06-14T00:44:22;10.50;;;6.43;;
45408;SDS011;31162;51.076;3.784;2023-06-14T00:46:48;9.95;;;6.50;;
45408;SDS011;31162;51.076;3.784;2023-06-14T00:49:14;10.35;;;6.18;;
45408;SDS011;31162;51.076;3.784;2023-06-14T00:51:42;7.45;;;6.70;;
45408;SDS011;31162;51.076;3.784;2023-06-14T00:54:08;8.88;;;6.63;;
45408;SDS011;31162;51.076;3.784;2023-06-14T00:56:35;9.02;;;7.03;;
45408;SDS011;31162;51.076;3.784;2023-06-14T00:59:02;7.45;;;6.65;;
45408;SDS011;31162;51.076;3.784;2023-06-14T01:01:28;11.73;;;7.38;;
45408;SDS011;31162;51.076;3.784;2023-06-14T01:03:57;7.38;;;6.65;;
45408;SDS011;31162;51.076;3.784;2023-06-14T01:12:13;7.53;;;6.82;;
45408;SDS011;31162;51.076;3.784;2023-06-14T01:14:56;6.93;;;6.18;;
45408;SDS011;31162;51.076;3.784;2023-06-14T01:17:24;7.30;;;6.60;;
45408;SDS011;31162;51.076;3.784;2023-06-14T01:19:52;7.60;;;6.55;;
45408;SDS011;31162;51.076;3.784;2023-06-14T01:22:23;7.75;;;6.53;;
45408;SDS011;31162;51.076;3.784;2023-06-14T01:24:52;8.45;;;7.32;;
45408;SDS011;31162;51.076;3.784;2023-06-14T01:27:21;7.93;;;6.65;;
45408;SDS011;31162;51.076;3.784;2023-06-14T01:29:50;11.07;;;7.05;;
45408;SDS011;31162;51.076;3.784;2023-06-14T01:32:17;9.57;;;6.85;;
45408;SDS011;31162;51.076;3.784;2023-06-14T01:34:44;8.23;;;7.00;;
45408;SDS011;31162;51.076;3.784;2023-06-14T01:37:10;7.47;;;6.75;;
45408;SDS011;31162;51.076;3.784;2023-06-14T01:39:37;7.22;;;6.53;;
45408;SDS011;31162;51.076;3.784;2023-06-14T01:42:21;8.15;;;7.00;;
45408;SDS011;31162;51.076;3.784;2023-06-14T01:44:52;8.38;;;7.55;;
45408;SDS011;31162;51.076;3.784;2023-06-14T01:47:19;11.90;;;7.90;;
45408;SDS011;31162;51.076;3.784;2023-06-14T01:49:46;9.13;;;7.28;;
45408;SDS011;31162;51.076;3.784;2023-06-14T01:52:12;10.13;;;7.40;;
45408;SDS011;31162;51.076;3.784;2023-06-14T01:54:38;8.73;;;7.75;;
45408;SDS011;31162;51.076;3.784;2023-06-14T01:57:07;8.10;;;7.40;;
45408;SDS011;31162;51.076;3.784;2023-06-14T01:59:34;7.40;;;6.80;;
45408;SDS011;31162;51.076;3.784;2023-06-14T02:02:01;8.43;;;7.63;;
45408;SDS011;31162;51.076;3.784;2023-06-14T02:04:28;8.27;;;7.47;;
45408;SDS011;31162;51.076;3.784;2023-06-14T02:06:54;9.02;;;7.97;;
45408;SDS011;31162;51.076;3.784;2023-06-14T02:09:19;8.50;;;7.68;;
45408;SDS011;31162;51.076;3.784;2023-06-14T02:11:45;8.40;;;7.70;;
45408;SDS011;31162;51.076;3.784;2023-06-14T02:14:13;8.43;;;7.72;;
45408;SDS011;31162;51.076;3.784;2023-06-14T02:16:39;9.32;;;7.43;;
45408;SDS011;31162;51.076;3.784;2023-06-14T02:19:05;9.07;;;8.15;;
45408;SDS011;31162;51.076;3.784;2023-06-14T02:21:30;8.48;;;7.47;;
45408;SDS011;31162;51.076;3.784;2023-06-14T02:23:56;9.95;;;7.18;;
45408;SDS011;31162;51.076;3.784;2023-06-14T02:26:23;11.73;;;8.05;;
45408;SDS011;31162;51.076;3.784;2023-06-14T02:28:49;8.55;;;7.55;;
45408;SDS011;31162;51.076;3.784;2023-06-14T02:31:14;8.20;;;7.35;;
45408;SDS011;31162;51.076;3.784;2023-06-14T02:33:41;12.75;;;8.18;;
45408;SDS011;31162;51.076;3.784;2023-06-14T02:36:06;8.15;;;7.35;;
45408;SDS011;31162;51.076;3.784;2023-06-14T02:38:32;8.65;;;7.75;;
45408;SDS011;31162;51.076;3.784;2023-06-14T02:40:58;8.10;;;7.40;;
45408;SDS011;31162;51.076;3.784;2023-06-14T02:43:26;10.80;;;8.23;;
45408;SDS011;31162;51.076;3.784;2023-06-14T02:45:53;9.00;;;8.07;;
45408;SDS011;31162;51.076;3.784;2023-06-14T02:48:19;8.45;;;7.57;;
45408;SDS011;31162;51.076;3.784;2023-06-14T02:50:45;8.25;;;6.93;;
45408;SDS011;31162;51.076;3.784;2023-06-14T02:53:10;7.70;;;7.00;;
45408;SDS011;31162;51.076;3.784;2023-06-14T02:55:37;8.23;;;7.30;;
45408;SDS011;31162;51.076;3.784;2023-06-14T02:58:04;7.88;;;7.07;;
45408;SDS011;31162;51.076;3.784;2023-06-14T03:00:33;9.77;;;7.78;;
45408;SDS011;31162;51.076;3.784;2023-06-14T03:03:00;9.23;;;7.28;;
45408;SDS011;31162;51.076;3.784;2023-06-14T03:05:26;10.77;;;7.75;;
45408;SDS011;31162;51.076;3.784;2023-06-14T03:07:53;8.90;;;8.00;;
45408;SDS011;31162;51.076;3.784;2023-06-14T03:10:19;8.38;;;7.53;;
45408;SDS011;31162;51.076;3.784;2023-06-14T03:12:47;8.35;;;7.50;;
45408;SDS011;31162;51.076;3.784;2023-06-14T03:15:12;8.50;;;7.45;;
45408;SDS011;31162;51.076;3.784;2023-06-14T03:17:38;8.07;;;7.32;;
45408;SDS011;31162;51.076;3.784;2023-06-14T03:20:04;9.05;;;7.80;;
45408;SDS011;31162;51.076;3.784;2023-06-14T03:22:31;9.15;;;7.53;;
45408;SDS011;31162;51.076;3.784;2023-06-14T03:24:59;12.27;;;8.38;;
45408;SDS011;31162;51.076;3.784;2023-06-14T03:27:25;7.95;;;7.07;;
45408;SDS011;31162;51.076;3.784;2023-06-14T03:29:53;8.50;;;7.70;;
45408;SDS011;31162;51.076;3.784;2023-06-14T03:32:19;9.00;;;7.45;;
45408;SDS011;31162;51.076;3.784;2023-06-14T03:34:44;8.00;;;7.30;;
45408;SDS011;31162;51.076;3.784;2023-06-14T03:37:11;10.07;;;7.32;;
45408;SDS011;31162;51.076;3.784;2023-06-14T03:39:37;8.13;;;7.00;;
45408;SDS011;31162;51.076;3.784;2023-06-14T03:42:03;8.73;;;7.50;;
45408;SDS011;31162;51.076;3.784;2023-06-14T03:44:29;11.98;;;7.38;;
45408;SDS011;31162;51.076;3.784;2023-06-14T03:46:57;7.88;;;7.10;;
45408;SDS011;31162;51.076;3.784;2023-06-14T03:49:22;8.98;;;7.40;;
45408;SDS011;31162;51.076;3.784;2023-06-14T03:51:48;11.80;;;8.13;;
45408;SDS011;31162;51.076;3.784;2023-06-14T03:54:16;9.75;;;8.70;;
45408;SDS011;31162;51.076;3.784;2023-06-14T03:56:41;9.00;;;8.10;;
45408;SDS011;31162;51.076;3.784;2023-06-14T03:59:10;8.23;;;7.43;;
45408;SDS011;31162;51.076;3.784;2023-06-14T04:01:36;8.27;;;7.50;;
45408;SDS011;31162;51.076;3.784;2023-06-14T04:04:02;11.00;;;7.25;;
45408;SDS011;31162;51.076;3.784;2023-06-14T04:06:27;10.15;;;9.10;;
45408;SDS011;31162;51.076;3.784;2023-06-14T04:08:57;10.55;;;8.20;;
45408;SDS011;31162;51.076;3.784;2023-06-14T04:11:27;8.90;;;7.30;;
45408;SDS011;31162;51.076;3.784;2023-06-14T04:13:52;7.93;;;6.75;;
45408;SDS011;31162;51.076;3.784;2023-06-14T04:16:21;8.57;;;7.25;;
45408;SDS011;31162;51.076;3.784;2023-06-14T04:18:47;11.10;;;8.65;;
45408;SDS011;31162;51.076;3.784;2023-06-14T04:21:16;10.77;;;7.82;;
45408;SDS011;31162;51.076;3.784;2023-06-14T04:23:42;9.88;;;6.70;;
45408;SDS011;31162;51.076;3.784;2023-06-14T04:26:09;9.18;;;6.90;;
45408;SDS011;31162;51.076;3.784;2023-06-14T04:28:35;10.32;;;6.90;;
45408;SDS011;31162;51.076;3.784;2023-06-14T04:31:05;8.85;;;7.15;;
45408;SDS011;31162;51.076;3.784;2023-06-14T04:33:34;9.13;;;6.90;;
45408;SDS011;31162;51.076;3.784;2023-06-14T04:36:08;7.82;;;6.78;;
45408;SDS011;31162;51.076;3.784;2023-06-14T04:38:36;12.70;;;7.30;;
45408;SDS011;31162;51.076;3.784;2023-06-14T04:41:02;9.80;;;6.65;;
45408;SDS011;31162;51.076;3.784;2023-06-14T04:43:28;8.35;;;7.03;;
45408;SDS011;31162;51.076;3.784;2023-06-14T04:45:54;7.95;;;7.18;;
45408;SDS011;31162;51.076;3.784;2023-06-14T04:48:21;9.15;;;6.40;;
45408;SDS011;31162;51.076;3.784;2023-06-14T04:50:47;8.90;;;7.13;;
45408;SDS011;31162;51.076;3.784;2023-06-14T04:53:17;8.38;;;6.40;;
45408;SDS011;31162;51.076;3.784;2023-06-14T04:55:46;14.00;;;11.68;;
45408;SDS011;31162;51.076;3.784;2023-06-14T04:58:12;8.88;;;7.03;;
45408;SDS011;31162;51.076;3.784;2023-06-14T05:00:38;12.15;;;7.88;;
45408;SDS011;31162;51.076;3.784;2023-06-14T05:03:03;9.77;;;7.38;;
45408;SDS011;31162;51.076;3.784;2023-06-14T05:05:30;11.02;;;6.80;;
45408;SDS011;31162;51.076;3.784;2023-06-14T05:07:57;9.35;;;7.50;;
45408;SDS011;31162;51.076;3.784;2023-06-14T05:10:22;12.60;;;8.10;;
45408;SDS011;31162;51.076;3.784;2023-06-14T05:12:49;13.65;;;6.75;;
45408;SDS011;31162;51.076;3.784;2023-06-14T05:15:15;9.50;;;7.90;;
45408;SDS011;31162;51.076;3.784;2023-06-14T05:17:41;13.60;;;7.80;;
45408;SDS011;31162;51.076;3.784;2023-06-14T05:20:07;11.95;;;7.70;;
45408;SDS011;31162;51.076;3.784;2023-06-14T05:22:35;13.65;;;8.13;;
45408;SDS011;31162;51.076;3.784;2023-06-14T05:25:01;14.77;;;8.60;;
45408;SDS011;31162;51.076;3.784;2023-06-14T05:27:27;11.00;;;8.20;;
45408;SDS011;31162;51.076;3.784;2023-06-14T05:29:52;10.98;;;7.60;;
45408;SDS011;31162;51.076;3.784;2023-06-14T05:32:23;9.93;;;7.65;;
45408;SDS011;31162;51.076;3.784;2023-06-14T05:34:49;8.45;;;7.68;;
45408;SDS011;31162;51.076;3.784;2023-06-14T05:37:15;9.23;;;7.68;;
45408;SDS011;31162;51.076;3.784;2023-06-14T05:39:40;13.65;;;10.93;;
45408;SDS011;31162;51.076;3.784;2023-06-14T05:42:06;10.18;;;8.43;;
45408;SDS011;31162;51.076;3.784;2023-06-14T05:44:32;11.05;;;8.35;;
45408;SDS011;31162;51.076;3.784;2023-06-14T05:47:00;9.82;;;7.80;;
45408;SDS011;31162;51.076;3.784;2023-06-14T05:49:26;11.68;;;8.02;;
45408;SDS011;31162;51.076;3.784;2023-06-14T05:51:52;10.57;;;8.73;;
45408;SDS011;31162;51.076;3.784;2023-06-14T05:54:17;8.05;;;7.28;;
45408;SDS011;31162;51.076;3.784;2023-06-14T05:56:43;9.50;;;7.57;;
45408;SDS011;31162;51.076;3.784;2023-06-14T05:59:08;13.63;;;7.15;;
45408;SDS011;31162;51.076;3.784;2023-06-14T06:01:34;10.32;;;8.10;;
45408;SDS011;31162;51.076;3.784;2023-06-14T06:04:01;9.25;;;7.63;;
45408;SDS011;31162;51.076;3.784;2023-06-14T06:06:27;10.23;;;7.95;;
45408;SDS011;31162;51.076;3.784;2023-06-14T06:08:53;10.18;;;7.20;;
45408;SDS011;31162;51.076;3.784;2023-06-14T06:11:19;9.20;;;6.95;;
45408;SDS011;31162;51.076;3.784;2023-06-14T06:13:45;8.50;;;7.68;;
45408;SDS011;31162;51.076;3.784;2023-06-14T06:16:10;8.60;;;7.50;;
45408;SDS011;31162;51.076;3.784;2023-06-14T06:18:36;12.38;;;7.75;;
45408;SDS011;31162;51.076;3.784;2023-06-14T06:21:03;12.00;;;7.97;;
45408;SDS011;31162;51.076;3.784;2023-06-14T06:23:29;8.45;;;7.18;;
45408;SDS011;31162;51.076;3.784;2023-06-14T06:25:55;8.32;;;7.40;;
45408;SDS011;31162;51.076;3.784;2023-06-14T06:28:21;9.98;;;7.65;;
45408;SDS011;31162;51.076;3.784;2023-06-14T06:30:48;8.00;;;7.22;;
45408;SDS011;31162;51.076;3.784;2023-06-14T06:33:15;11.68;;;7.85;;
45408;SDS011;31162;51.076;3.784;2023-06-14T06:35:42;9.57;;;7.28;;
45408;SDS011;31162;51.076;3.784;2023-06-14T06:38:08;10.18;;;8.32;;
45408;SDS011;31162;51.076;3.784;2023-06-14T06:40:35;10.23;;;7.18;;
45408;SDS011;31162;51.076;3.784;2023-06-14T06:43:01;8.32;;;7.07;;
45408;SDS011;31162;51.076;3.784;2023-06-14T06:45:28;8.07;;;7.00;;
45408;SDS011;31162;51.076;3.784;2023-06-14T06:47:53;7.93;;;7.03;;
45408;SDS011;31162;51.076;3.784;2023-06-14T06:50:20;8.35;;;7.57;;
45408;SDS011;31162;51.076;3.784;2023-06-14T06:52:48;9.15;;;7.13;;
45408;SDS011;31162;51.076;3.784;2023-06-14T06:55:14;9.13;;;7.70;;
45408;SDS011;31162;51.076;3.784;2023-06-14T06:57:39;11.68;;;7.10;;
45408;SDS011;31162;51.076;3.784;2023-06-14T07:00:06;9.80;;;7.43;;
45408;SDS011;31162;51.076;3.784;2023-06-14T07:02:35;9.05;;;6.90;;
45408;SDS011;31162;51.076;3.784;2023-06-14T07:05:01;8.65;;;6.68;;
45408;SDS011;31162;51.076;3.784;2023-06-14T07:07:27;10.20;;;7.63;;
45408;SDS011;31162;51.076;3.784;2023-06-14T07:09:53;11.52;;;7.28;;
45408;SDS011;31162;51.076;3.784;2023-06-14T07:12:18;9.15;;;8.00;;
45408;SDS011;31162;51.076;3.784;2023-06-14T07:14:44;9.65;;;7.72;;
45408;SDS011;31162;51.076;3.784;2023-06-14T07:17:09;8.63;;;7.82;;
45408;SDS011;31162;51.076;3.784;2023-06-14T07:19:35;9.80;;;7.57;;
45408;SDS011;31162;51.076;3.784;2023-06-14T07:22:01;8.40;;;7.53;;
45408;SDS011;31162;51.076;3.784;2023-06-14T07:24:26;9.50;;;7.13;;
45408;SDS011;31162;51.076;3.784;2023-06-14T07:26:53;10.00;;;6.95;;
45408;SDS011;31162;51.076;3.784;2023-06-14T07:29:19;11.18;;;7.13;;
45408;SDS011;31162;51.076;3.784;2023-06-14T07:31:46;7.60;;;6.65;;
45408;SDS011;31162;51.076;3.784;2023-06-14T07:34:11;9.52;;;8.07;;
45408;SDS011;31162;51.076;3.784;2023-06-14T07:36:37;11.77;;;7.68;;
45408;SDS011;31162;51.076;3.784;2023-06-14T07:39:03;8.85;;;7.95;;
45408;SDS011;31162;51.076;3.784;2023-06-14T07:41:30;8.43;;;7.35;;
45408;SDS011;31162;51.076;3.784;2023-06-14T07:43:56;9.27;;;8.20;;
45408;SDS011;31162;51.076;3.784;2023-06-14T07:46:22;8.65;;;7.80;;
45408;SDS011;31162;51.076;3.784;2023-06-14T07:48:48;13.27;;;9.00;;
45408;SDS011;31162;51.076;3.784;2023-06-14T07:51:13;11.63;;;8.77;;
45408;SDS011;31162;51.076;3.784;2023-06-14T07:53:39;8.50;;;7.72;;
45408;SDS011;31162;51.076;3.784;2023-06-14T07:56:06;8.52;;;7.47;;
45408;SDS011;31162;51.076;3.784;2023-06-14T07:58:31;15.57;;;7.65;;
45408;SDS011;31162;51.076;3.784;2023-06-14T08:00:57;10.80;;;7.15;;
45408;SDS011;31162;51.076;3.784;2023-06-14T08:03:23;9.15;;;8.00;;
45408;SDS011;31162;51.076;3.784;2023-06-14T08:05:49;11.35;;;7.47;;
45408;SDS011;31162;51.076;3.784;2023-06-14T08:08:15;9.00;;;7.50;;
45408;SDS011;31162;51.076;3.784;2023-06-14T08:10:41;12.95;;;7.75;;
45408;SDS011;31162;51.076;3.784;2023-06-14T08:13:07;10.05;;;7.90;;
45408;SDS011;31162;51.076;3.784;2023-06-14T08:15:34;13.75;;;7.65;;
45408;SDS011;31162;51.076;3.784;2023-06-14T08:18:00;8.23;;;7.43;;
45408;SDS011;31162;51.076;3.784;2023-06-14T08:20:26;8.80;;;7.30;;
45408;SDS011;31162;51.076;3.784;2023-06-14T08:22:51;8.00;;;7.13;;
45408;SDS011;31162;51.076;3.784;2023-06-14T08:25:22;13.73;;;8.93;;
45408;SDS011;31162;51.076;3.784;2023-06-14T08:27:48;13.13;;;7.65;;
45408;SDS011;31162;51.076;3.784;2023-06-14T08:30:14;9.82;;;8.02;;
45408;SDS011;31162;51.076;3.784;2023-06-14T08:32:40;10.80;;;7.40;;
45408;SDS011;31162;51.076;3.784;2023-06-14T08:35:05;8.52;;;7.30;;
45408;SDS011;31162;51.076;3.784;2023-06-14T08:37:32;9.68;;;7.20;;
45408;SDS011;31162;51.076;3.784;2023-06-14T08:40:00;8.82;;;7.32;;
45408;SDS011;31162;51.076;3.784;2023-06-14T08:42:30;11.05;;;6.75;;
45408;SDS011;31162;51.076;3.784;2023-06-14T08:44:57;11.25;;;6.82;;
45408;SDS011;31162;51.076;3.784;2023-06-14T08:47:23;9.65;;;6.45;;
45408;SDS011;31162;51.076;3.784;2023-06-14T08:49:51;7.80;;;6.32;;
45408;SDS011;31162;51.076;3.784;2023-06-14T08:52:20;12.68;;;6.45;;
45408;SDS011;31162;51.076;3.784;2023-06-14T08:54:47;9.70;;;6.55;;
45408;SDS011;31162;51.076;3.784;2023-06-14T08:57:13;8.23;;;6.60;;
45408;SDS011;31162;51.076;3.784;2023-06-14T08:59:41;8.48;;;7.20;;
45408;SDS011;31162;51.076;3.784;2023-06-14T09:02:14;13.70;;;7.90;;
45408;SDS011;31162;51.076;3.784;2023-06-14T09:04:45;8.63;;;7.22;;
45408;SDS011;31162;51.076;3.784;2023-06-14T09:07:11;10.07;;;6.70;;
45408;SDS011;31162;51.076;3.784;2023-06-14T09:09:40;7.85;;;6.82;;
45408;SDS011;31162;51.076;3.784;2023-06-14T09:12:10;11.68;;;7.07;;
45408;SDS011;31162;51.076;3.784;2023-06-14T09:14:37;11.63;;;6.25;;
45408;SDS011;31162;51.076;3.784;2023-06-14T09:17:05;8.20;;;6.60;;
45408;SDS011;31162;51.076;3.784;2023-06-14T09:19:31;6.20;;;5.60;;
45408;SDS011;31162;51.076;3.784;2023-06-14T09:21:56;7.97;;;5.82;;
45408;SDS011;31162;51.076;3.784;2023-06-14T09:24:23;7.10;;;5.97;;
45408;SDS011;31162;51.076;3.784;2023-06-14T09:26:51;9.95;;;6.32;;
45408;SDS011;31162;51.076;3.784;2023-06-14T09:29:17;11.60;;;6.93;;
45408;SDS011;31162;51.076;3.784;2023-06-14T09:31:47;7.93;;;6.22;;
45408;SDS011;31162;51.076;3.784;2023-06-14T09:34:12;9.25;;;6.55;;
45408;SDS011;31162;51.076;3.784;2023-06-14T09:36:41;11.52;;;5.40;;
45408;SDS011;31162;51.076;3.784;2023-06-14T09:39:07;7.60;;;5.90;;
45408;SDS011;31162;51.076;3.784;2023-06-14T09:41:37;7.00;;;6.38;;
45408;SDS011;31162;51.076;3.784;2023-06-14T09:44:05;9.20;;;6.15;;
45408;SDS011;31162;51.076;3.784;2023-06-14T09:46:32;8.55;;;6.72;;
45408;SDS011;31162;51.076;3.784;2023-06-14T09:48:59;7.90;;;6.03;;
45408;SDS011;31162;51.076;3.784;2023-06-14T09:51:26;13.38;;;5.82;;
45408;SDS011;31162;51.076;3.784;2023-06-14T09:53:53;6.78;;;6.07;;
45408;SDS011;31162;51.076;3.784;2023-06-14T09:58:58;10.40;;;5.82;;
45408;SDS011;31162;51.076;3.784;2023-06-14T10:01:25;6.20;;;5.47;;
45408;SDS011;31162;51.076;3.784;2023-06-14T10:03:55;6.07;;;5.47;;
45408;SDS011;31162;51.076;3.784;2023-06-14T10:06:39;6.15;;;5.22;;
45408;SDS011;31162;51.076;3.784;2023-06-14T10:09:07;5.72;;;5.13;;
45408;SDS011;31162;51.076;3.784;2023-06-14T10:11:35;8.95;;;5.97;;
45408;SDS011;31162;51.076;3.784;2023-06-14T10:14:01;6.15;;;5.38;;
45408;SDS011;31162;51.076;3.784;2023-06-14T10:16:37;11.88;;;6.00;;
45408;SDS011;31162;51.076;3.784;2023-06-14T10:25:01;8.23;;;5.47;;
45408;SDS011;31162;51.076;3.784;2023-06-14T10:27:27;6.40;;;5.30;;
45408;SDS011;31162;51.076;3.784;2023-06-14T10:32:19;8.18;;;5.57;;
45408;SDS011;31162;51.076;3.784;2023-06-14T10:34:51;10.50;;;5.90;;
45408;SDS011;31162;51.076;3.784;2023-06-14T10:37:30;8.10;;;5.22;;
45408;SDS011;31162;51.076;3.784;2023-06-14T10:39:56;5.50;;;5.00;;
45408;SDS011;31162;51.076;3.784;2023-06-14T10:42:23;11.02;;;5.72;;
45408;SDS011;31162;51.076;3.784;2023-06-14T10:44:54;5.95;;;5.32;;
45408;SDS011;31162;51.076;3.784;2023-06-14T10:47:21;6.30;;;5.70;;
45408;SDS011;31162;51.076;3.784;2023-06-14T10:52:27;6.53;;;5.82;;
45408;SDS011;31162;51.076;3.784;2023-06-14T10:57:49;6.28;;;5.10;;
45408;SDS011;31162;51.076;3.784;2023-06-14T11:00:29;11.27;;;6.55;;
45408;SDS011;31162;51.076;3.784;2023-06-14T11:03:11;7.03;;;5.90;;
45408;SDS011;31162;51.076;3.784;2023-06-14T11:05:55;8.65;;;5.82;;
45408;SDS011;31162;51.076;3.784;2023-06-14T11:11:06;7.47;;;5.40;;
45408;SDS011;31162;51.076;3.784;2023-06-14T11:13:34;7.07;;;5.68;;
45408;SDS011;31162;51.076;3.784;2023-06-14T11:16:02;6.53;;;5.57;;
45408;SDS011;31162;51.076;3.784;2023-06-14T11:18:36;6.15;;;5.57;;
45408;SDS011;31162;51.076;3.784;2023-06-14T11:21:02;7.53;;;5.70;;
45408;SDS011;31162;51.076;3.784;2023-06-14T11:23:27;6.35;;;5.45;;
45408;SDS011;31162;51.076;3.784;2023-06-14T11:25:53;7.30;;;5.70;;
45408;SDS011;31162;51.076;3.784;2023-06-14T11:28:19;6.57;;;5.80;;
45408;SDS011;31162;51.076;3.784;2023-06-14T11:30:46;8.80;;;5.75;;
45408;SDS011;31162;51.076;3.784;2023-06-14T11:33:16;8.38;;;5.85;;
45408;SDS011;31162;51.076;3.784;2023-06-14T11:35:43;8.65;;;5.82;;
45408;SDS011;31162;51.076;3.784;2023-06-14T11:38:10;7.10;;;5.70;;
45408;SDS011;31162;51.076;3.784;2023-06-14T11:40:37;6.03;;;5.40;;
45408;SDS011;31162;51.076;3.784;2023-06-14T11:43:03;6.47;;;5.13;;
45408;SDS011;31162;51.076;3.784;2023-06-14T11:45:30;5.40;;;4.75;;
45408;SDS011;31162;51.076;3.784;2023-06-14T11:47:56;6.25;;;5.63;;
45408;SDS011;31162;51.076;3.784;2023-06-14T11:50:22;6.10;;;5.30;;
45408;SDS011;31162;51.076;3.784;2023-06-14T11:52:55;7.07;;;5.18;;
45408;SDS011;31162;51.076;3.784;2023-06-14T11:55:22;7.43;;;6.43;;
45408;SDS011;31162;51.076;3.784;2023-06-14T11:57:48;8.38;;;5.60;;
45408;SDS011;31162;51.076;3.784;2023-06-14T12:00:14;8.70;;;5.65;;
45408;SDS011;31162;51.076;3.784;2023-06-14T12:02:41;6.85;;;6.25;;
45408;SDS011;31162;51.076;3.784;2023-06-14T12:05:07;7.72;;;5.90;;
45408;SDS011;31162;51.076;3.784;2023-06-14T12:07:37;5.88;;;5.38;;
45408;SDS011;31162;51.076;3.784;2023-06-14T12:10:05;6.80;;;5.05;;
45408;SDS011;31162;51.076;3.784;2023-06-14T12:12:35;11.18;;;5.80;;
45408;SDS011;31162;51.076;3.784;2023-06-14T12:15:05;9.15;;;6.07;;
45408;SDS011;31162;51.076;3.784;2023-06-14T12:17:33;10.52;;;5.90;;
45408;SDS011;31162;51.076;3.784;2023-06-14T12:20:04;6.30;;;5.80;;
45408;SDS011;31162;51.076;3.784;2023-06-14T12:22:38;8.93;;;5.88;;
45408;SDS011;31162;51.076;3.784;2023-06-14T12:25:28;8.32;;;6.40;;
45408;SDS011;31162;51.076;3.784;2023-06-14T12:27:57;9.93;;;6.00;;
45408;SDS011;31162;51.076;3.784;2023-06-14T12:30:33;6.20;;;5.57;;
45408;SDS011;31162;51.076;3.784;2023-06-14T12:32:59;9.88;;;5.57;;
45408;SDS011;31162;51.076;3.784;2023-06-14T12:35:27;9.07;;;5.63;;
45408;SDS011;31162;51.076;3.784;2023-06-14T12:37:53;8.43;;;5.38;;
45408;SDS011;31162;51.076;3.784;2023-06-14T12:40:21;7.15;;;5.25;;
45408;SDS011;31162;51.076;3.784;2023-06-14T12:42:47;7.07;;;5.07;;
45408;SDS011;31162;51.076;3.784;2023-06-14T12:45:12;6.70;;;5.47;;
45408;SDS011;31162;51.076;3.784;2023-06-14T12:47:38;8.18;;;5.00;;
45408;SDS011;31162;51.076;3.784;2023-06-14T12:50:05;6.38;;;5.78;;
45408;SDS011;31162;51.076;3.784;2023-06-14T12:52:31;12.27;;;5.53;;
45408;SDS011;31162;51.076;3.784;2023-06-14T12:55:03;5.70;;;5.18;;
45408;SDS011;31162;51.076;3.784;2023-06-14T12:57:29;6.25;;;5.10;;
45408;SDS011;31162;51.076;3.784;2023-06-14T12:59:55;7.78;;;5.25;;
45408;SDS011;31162;51.076;3.784;2023-06-14T13:02:20;7.88;;;4.90;;
45408;SDS011;31162;51.076;3.784;2023-06-14T13:04:48;11.90;;;4.78;;
45408;SDS011;31162;51.076;3.784;2023-06-14T13:07:14;8.20;;;4.80;;
45408;SDS011;31162;51.076;3.784;2023-06-14T13:09:40;9.85;;;4.90;;
45408;SDS011;31162;51.076;3.784;2023-06-14T13:12:06;5.88;;;5.05;;
45408;SDS011;31162;51.076;3.784;2023-06-14T13:14:33;5.97;;;4.72;;
45408;SDS011;31162;51.076;3.784;2023-06-14T13:16:59;11.55;;;5.05;;
45408;SDS011;31162;51.076;3.784;2023-06-14T13:19:24;8.45;;;4.60;;
45408;SDS011;31162;51.076;3.784;2023-06-14T13:21:50;7.03;;;5.03;;
45408;SDS011;31162;51.076;3.784;2023-06-14T13:24:16;8.93;;;5.13;;
45408;SDS011;31162;51.076;3.784;2023-06-14T13:26:44;8.68;;;5.25;;
45408;SDS011;31162;51.076;3.784;2023-06-14T13:29:10;9.38;;;4.93;;
45408;SDS011;31162;51.076;3.784;2023-06-14T13:31:35;6.97;;;4.90;;
45408;SDS011;31162;51.076;3.784;2023-06-14T13:34:01;7.32;;;4.97;;
45408;SDS011;31162;51.076;3.784;2023-06-14T13:36:27;6.97;;;4.57;;
45408;SDS011;31162;51.076;3.784;2023-06-14T13:38:52;6.00;;;4.45;;
45408;SDS011;31162;51.076;3.784;2023-06-14T13:41:20;10.25;;;5.30;;
45408;SDS011;31162;51.076;3.784;2023-06-14T13:43:45;7.93;;;4.50;;
45408;SDS011;31162;51.076;3.784;2023-06-14T13:46:11;7.53;;;4.38;;
45408;SDS011;31162;51.076;3.784;2023-06-14T13:48:37;10.38;;;4.88;;
45408;SDS011;31162;51.076;3.784;2023-06-14T13:51:03;7.57;;;4.68;;
45408;SDS011;31162;51.076;3.784;2023-06-14T13:53:29;6.80;;;4.90;;
45408;SDS011;31162;51.076;3.784;2023-06-14T13:55:55;6.25;;;4.30;;
45408;SDS011;31162;51.076;3.784;2023-06-14T13:58:21;6.82;;;4.45;;
45408;SDS011;31162;51.076;3.784;2023-06-14T14:00:48;8.02;;;4.50;;
45408;SDS011;31162;51.076;3.784;2023-06-14T14:03:14;7.93;;;4.53;;
45408;SDS011;31162;51.076;3.784;2023-06-14T14:05:39;8.05;;;3.85;;
45408;SDS011;31162;51.076;3.784;2023-06-14T14:08:05;5.97;;;3.90;;
45408;SDS011;31162;51.076;3.784;2023-06-14T14:10:31;5.45;;;3.85;;
45408;SDS011;31162;51.076;3.784;2023-06-14T14:12:56;5.20;;;4.00;;
45408;SDS011;31162;51.076;3.784;2023-06-14T14:15:22;8.45;;;3.78;;
45408;SDS011;31162;51.076;3.784;2023-06-14T14:17:48;8.23;;;3.55;;
45408;SDS011;31162;51.076;3.784;2023-06-14T14:20:13;7.00;;;3.97;;
45408;SDS011;31162;51.076;3.784;2023-06-14T14:22:43;9.48;;;4.25;;
45408;SDS011;31162;51.076;3.784;2023-06-14T14:25:09;7.97;;;3.75;;
45408;SDS011;31162;51.076;3.784;2023-06-14T14:27:35;6.40;;;3.83;;
45408;SDS011;31162;51.076;3.784;2023-06-14T14:30:02;7.05;;;3.60;;
45408;SDS011;31162;51.076;3.784;2023-06-14T14:32:29;5.78;;;3.80;;
45408;SDS011;31162;51.076;3.784;2023-06-14T14:34:55;6.40;;;4.00;;
45408;SDS011;31162;51.076;3.784;2023-06-14T14:37:20;4.53;;;3.38;;
45408;SDS011;31162;51.076;3.784;2023-06-14T14:39:46;9.18;;;3.53;;
45408;SDS011;31162;51.076;3.784;2023-06-14T14:42:12;7.10;;;3.28;;
45408;SDS011;31162;51.076;3.784;2023-06-14T14:44:40;9.50;;;3.88;;
45408;SDS011;31162;51.076;3.784;2023-06-14T14:47:05;5.93;;;3.30;;
45408;SDS011;31162;51.076;3.784;2023-06-14T14:49:31;3.95;;;2.90;;
45408;SDS011;31162;51.076;3.784;2023-06-14T14:51:57;5.55;;;3.47;;
45408;SDS011;31162;51.076;3.784;2023-06-14T14:54:23;5.70;;;3.10;;
45408;SDS011;31162;51.076;3.784;2023-06-14T14:56:50;8.48;;;3.10;;
45408;SDS011;31162;51.076;3.784;2023-06-14T14:59:16;5.28;;;2.78;;
45408;SDS011;31162;51.076;3.784;2023-06-14T15:01:42;4.78;;;2.75;;
45408;SDS011;31162;51.076;3.784;2023-06-14T15:04:08;2.97;;;2.17;;
45408;SDS011;31162;51.076;3.784;2023-06-14T15:06:33;4.97;;;2.53;;
45408;SDS011;31162;51.076;3.784;2023-06-14T15:09:00;3.92;;;2.60;;